Time;durP1;ratioP1;P1;durP2;ratioP2;P2;SDS_P1;SDS_P2;PMS_P1;PMS_P2;Temp;Humidity;BMP_temperature;BMP_pressure;BME280_temperature;BME280_humidity;BME280_pressure;Samples;Min_cycle;Max_cycle;Signal;HPM_P1;HPM_P2
2021/04/12 00:01:26;;;;;;;8.98;5.88;;;5.70;99.90;;;;;;4984201;28;20030;-76
2021/04/12 00:03:54;;;;;;;;;;;5.70;99.90;;;;;;4986491;28;20030;-76
2021/04/12 00:06:26;;;;;;;9.07;5.80;;;5.70;99.90;;;;;;4986037;28;19928;-77
2021/04/12 00:09:04;;;;;;;7.88;5.90;;;5.70;99.90;;;;;;4992206;28;20026;-76
2021/04/12 00:11:44;;;;;;;8.48;6.25;;;5.70;99.90;;;;;;4988433;28;20483;-77
2021/04/12 00:14:13;;;;;;;8.65;6.10;;;5.70;99.90;;;;;;4989757;28;20037;-77
2021/04/12 00:16:45;;;;;;;8.93;6.03;;;5.70;99.90;;;;;;4991020;28;20392;-78
2021/04/12 00:19:29;;;;;;;8.85;6.03;;;5.70;99.90;;;;;;4992987;28;20030;-77
2021/04/12 00:22:12;;;;;;;8.98;5.80;;;5.70;99.90;;;;;;5004697;28;20042;-76
2021/04/12 00:24:59;;;;;;;7.28;5.55;;;5.70;99.90;;;;;;5002073;28;20091;-77
2021/04/12 00:27:37;;;;;;;7.57;6.00;;;5.80;99.90;;;;;;4990227;28;20041;-78
2021/04/12 00:30:18;;;;;;;10.50;6.63;;;5.80;99.90;;;;;;4991387;28;20496;-77
2021/04/12 00:32:53;;;;;;;8.93;6.43;;;5.80;99.90;;;;;;4993041;28;20153;-78
2021/04/12 00:35:29;;;;;;;11.38;6.50;;;5.80;99.90;;;;;;4989915;28;20030;-77
2021/04/12 00:38:06;;;;;;;8.98;6.53;;;5.70;99.90;;;;;;4991132;28;20057;-77
2021/04/12 00:41:11;;;;;;;8.93;6.05;;;5.80;99.90;;;;;;4987393;28;20082;-76
2021/04/12 00:43:56;;;;;;;9.90;6.45;;;5.90;99.90;;;;;;4988504;28;20069;-76
2021/04/12 00:46:34;;;;;;;8.32;5.82;;;;;;;;;;4991425;28;20076;-79
2021/04/12 00:49:37;;;;;;;11.40;6.40;;;5.80;99.90;;;;;;4989832;28;20030;-77
2021/04/12 00:52:54;;;;;;;10.27;6.82;;;5.90;99.90;;;;;;4968836;28;20049;-77
2021/04/12 00:55:37;;;;;;;10.27;6.40;;;5.90;99.90;;;;;;4943740;28;20035;-77
2021/04/12 00:58:37;;;;;;;9.38;6.45;;;5.90;99.90;;;;;;4984858;28;20026;-76
2021/04/12 01:01:12;;;;;;;12.43;6.67;;;5.80;99.90;;;;;;4983399;28;20131;-77
2021/04/12 01:03:59;;;;;;;12.52;7.10;;;5.90;99.90;;;;;;4989779;28;20033;-77
2021/04/12 01:06:46;;;;;;;11.80;6.85;;;5.80;99.90;;;;;;4988419;28;20035;-75
2021/04/12 01:09:23;;;;;;;11.02;7.07;;;5.80;99.90;;;;;;4984084;28;20054;-78
2021/04/12 01:12:12;;;;;;;9.63;7.35;;;5.80;99.90;;;;;;5008774;28;20122;-78
2021/04/12 01:15:05;;;;;;;9.38;6.68;;;5.80;99.90;;;;;;5006713;28;20030;-79
2021/04/12 01:17:40;;;;;;;10.85;6.82;;;5.80;99.90;;;;;;4990918;28;20409;-78
2021/04/12 01:20:54;;;;;;;11.23;6.60;;;5.80;99.90;;;;;;4989009;28;20428;-79
2021/04/12 01:23:25;;;;;;;12.82;7.22;;;5.80;99.90;;;;;;4984209;28;20042;-76
2021/04/12 01:26:22;;;;;;;8.95;6.32;;;5.70;99.90;;;;;;5002168;28;20497;-77
2021/04/12 01:29:14;;;;;;;13.13;6.15;;;5.70;99.90;;;;;;5002132;28;21106;-79
2021/04/12 01:32:08;;;;;;;10.10;6.70;;;5.60;99.90;;;;;;4984192;28;20030;-77
2021/04/12 01:34:36;;;;;;;10.75;6.30;;;5.60;99.90;;;;;;4984787;28;20030;-77
2021/04/12 01:37:24;;;;;;;9.77;5.80;;;5.60;99.90;;;;;;4986974;28;20037;-76
2021/04/12 01:40:08;;;;;;;8.07;5.75;;;5.60;99.90;;;;;;4992501;28;20038;-77
2021/04/12 01:43:05;;;;;;;10.35;6.25;;;5.60;99.90;;;;;;4985876;28;20030;-78
2021/04/12 01:45:37;;;;;;;9.00;5.28;;;5.50;99.90;;;;;;4991668;28;20034;-79
2021/04/12 01:48:27;;;;;;;7.95;5.55;;;5.50;99.90;;;;;;4982220;28;20112;-76
2021/04/12 01:51:14;;;;;;;9.85;5.93;;;5.40;99.90;;;;;;4986786;28;20054;-78
2021/04/12 01:54:18;;;;;;;9.48;6.20;;;5.40;99.90;;;;;;4985756;28;20061;-77
2021/04/12 01:56:43;;;;;;;8.38;5.07;;;5.50;99.90;;;;;;4991138;28;20409;-77
2021/04/12 01:59:24;;;;;;;7.35;5.10;;;5.40;99.90;;;;;;4988758;28;20037;-77
2021/04/12 02:02:46;;;;;;;7.95;5.20;;;5.40;99.90;;;;;;4988014;28;20037;-79
2021/04/12 02:05:38;;;;;;;6.82;4.85;;;5.30;99.90;;;;;;4932618;28;20066;-76
2021/04/12 02:08:41;;;;;;;8.52;5.47;;;5.30;99.90;;;;;;4989189;28;20528;-78
2021/04/12 02:11:34;;;;;;;10.80;5.28;;;5.30;99.90;;;;;;4990313;28;20026;-79
2021/04/12 02:14:13;;;;;;;7.38;5.22;;;5.30;99.90;;;;;;4986471;28;20030;-77
2021/04/12 02:17:02;;;;;;;9.95;5.20;;;5.30;99.90;;;;;;4987434;28;20030;-77
2021/04/12 02:20:03;;;;;;;6.97;4.88;;;7.70;99.90;;;;;;5003463;28;20543;-76
2021/04/12 02:22:47;;;;;;;;;;;5.50;99.90;;;;;;4988445;28;20037;-77
2021/04/12 02:25:18;;;;;;;7.78;4.95;;;5.50;99.90;;;;;;4987698;28;19913;-76
2021/04/12 02:28:19;;;;;;;8.10;4.95;;;5.30;99.90;;;;;;5000532;28;20030;-77
2021/04/12 02:31:21;;;;;;;8.70;4.85;;;5.40;99.90;;;;;;4983925;28;20045;-76
2021/04/12 02:33:55;;;;;;;6.57;5.03;;;5.40;99.90;;;;;;4987553;28;20121;-77
2021/04/12 02:36:39;;;;;;;7.95;5.35;;;5.30;99.90;;;;;;4980734;28;20553;-78
2021/04/12 02:39:30;;;;;;;11.68;5.47;;;5.30;99.90;;;;;;4987742;28;20388;-77
2021/04/12 02:42:20;;;;;;;7.30;5.28;;;5.20;99.90;;;;;;4982026;28;20156;-77
2021/04/12 02:45:03;;;;;;;6.78;5.47;;;5.20;99.90;;;;;;4985636;28;20029;-78
2021/04/12 02:47:50;;;;;;;7.82;4.85;;;5.10;99.90;;;;;;4988524;28;20411;-79
2021/04/12 02:50:24;;;;;;;7.10;4.90;;;5.10;99.90;;;;;;4985502;28;20072;-77
2021/04/12 02:53:18;;;;;;;10.60;4.68;;;5.10;99.90;;;;;;4987846;28;20038;-76
2021/04/12 02:55:55;;;;;;;8.07;4.72;;;5.10;99.90;;;;;;4997016;28;20038;-77
2021/04/12 02:58:45;;;;;;;6.85;5.03;;;5.10;99.90;;;;;;5002684;28;20552;-77
2021/04/12 03:01:33;;;;;;;6.43;4.97;;;5.10;99.90;;;;;;4986791;28;20141;-76
2021/04/12 03:04:10;;;;;;;9.77;6.03;;;5.10;99.90;;;;;;5002282;28;20058;-78
2021/04/12 03:07:02;;;;;;;9.43;5.72;;;5.10;99.90;;;;;;5004582;28;20038;-76
2021/04/12 03:09:46;;;;;;;7.28;5.05;;;5.00;99.90;;;;;;4985971;28;20393;-77
2021/04/12 03:12:45;;;;;;;8.18;5.13;;;5.00;99.90;;;;;;4989940;28;20030;-77
2021/04/12 03:15:43;;;;;;;9.52;5.25;;;4.80;99.90;;;;;;5001946;28;20033;-75
2021/04/12 03:18:47;;;;;;;10.45;5.75;;;5.00;99.90;;;;;;4989033;28;20115;-76
2021/04/12 03:21:18;;;;;;;7.78;5.40;;;4.90;99.90;;;;;;5007598;28;20421;-80
2021/04/12 03:24:12;;;;;;;7.20;5.10;;;5.00;99.90;;;;;;4988401;28;20026;-79
2021/04/12 03:26:56;;;;;;;9.70;5.60;;;5.00;99.90;;;;;;5006658;28;20034;-77
2021/04/12 03:29:36;;;;;;;8.88;6.20;;;5.00;99.90;;;;;;4991707;28;20043;-77
2021/04/12 03:32:02;;;;;;;9.67;5.80;;;;;;;;;;4990092;28;20034;-78
2021/04/12 03:34:38;;;;;;;9.75;5.90;;;4.90;99.90;;;;;;4991132;28;20652;-77
2021/04/12 03:37:31;;;;;;;10.95;6.13;;;4.90;99.90;;;;;;4991519;28;20069;-78
2021/04/12 03:40:11;;;;;;;10.13;6.28;;;4.90;99.90;;;;;;4994047;28;20038;-77
2021/04/12 03:42:46;;;;;;;12.00;6.10;;;4.90;99.90;;;;;;4987470;28;20061;-77
2021/04/12 03:45:54;;;;;;;11.85;6.65;;;4.90;99.90;;;;;;4989692;28;20041;-76
2021/04/12 03:48:22;;;;;;;11.13;5.97;;;4.80;99.90;;;;;;5008286;28;20026;-77
2021/04/12 03:51:06;;;;;;;8.55;6.45;;;4.80;99.90;;;;;;5007897;28;20506;-76
2021/04/12 03:54:00;;;;;;;11.27;6.18;;;4.80;99.90;;;;;;4991212;28;20116;-75
2021/04/12 03:56:40;;;;;;;7.93;5.80;;;4.90;99.90;;;;;;4989835;28;20068;-77
2021/04/12 03:59:17;;;;;;;8.85;6.63;;;4.90;99.90;;;;;;5007286;28;20033;-75
2021/04/12 04:01:52;;;;;;;13.15;7.13;;;4.80;99.90;;;;;;4987701;28;20038;-76
2021/04/12 04:04:29;;;;;;;10.45;6.47;;;4.80;99.90;;;;;;4988855;28;20026;-77
2021/04/12 04:07:08;;;;;;;12.40;6.72;;;4.80;99.90;;;;;;4990660;28;20037;-77
2021/04/12 04:09:46;;;;;;;10.10;7.18;;;4.80;99.90;;;;;;4993886;28;20093;-77
2021/04/12 04:12:30;;;;;;;10.75;7.00;;;4.80;99.90;;;;;;5004389;28;20027;-77
2021/04/12 04:15:08;;;;;;;10.18;6.82;;;4.80;99.90;;;;;;4992849;28;20022;-77
2021/04/12 04:18:00;;;;;;;9.45;6.72;;;4.70;99.90;;;;;;5002668;28;20053;-76
2021/04/12 04:20:49;;;;;;;10.10;7.60;;;4.70;99.90;;;;;;4988521;28;20034;-76
2021/04/12 04:23:15;;;;;;;12.45;7.50;;;;;;;;;;4992168;28;20037;-75
2021/04/12 04:26:12;;;;;;;12.30;6.82;;;4.70;99.90;;;;;;4989719;28;20089;-77
2021/04/12 04:29:01;;;;;;;10.02;6.78;;;4.80;99.90;;;;;;4987741;28;20400;-75
2021/04/12 04:31:51;;;;;;;11.98;7.07;;;4.70;99.90;;;;;;4978458;28;21325;-77
2021/04/12 04:34:55;;;;;;;11.27;7.63;;;4.70;99.90;;;;;;4995795;28;20489;-77
2021/04/12 04:37:41;;;;;;;9.82;7.22;;;4.60;99.90;;;;;;4916368;29;20047;-76
2021/04/12 04:40:21;;;;;;;12.98;7.40;;;4.70;99.90;;;;;;4898375;29;20032;-78
2021/04/12 04:43:08;;;;;;;11.15;7.50;;;4.70;99.90;;;;;;4961707;28;20046;-78
2021/04/12 04:45:34;;;;;;;12.85;7.32;;;;;;;;;;4996766;28;20070;-76
2021/04/12 04:48:35;;;;;;;12.23;8.02;;;4.60;99.90;;;;;;4994053;28;20023;-76
2021/04/12 04:51:01;;;;;;;10.00;7.18;;;;;;;;;;4992476;28;20026;-76
2021/04/12 04:53:39;;;;;;;13.00;8.02;;;4.60;99.90;;;;;;4989804;28;20087;-75
2021/04/12 04:56:26;;;;;;;12.73;8.25;;;4.60;99.90;;;;;;5002504;28;20035;-77
2021/04/12 04:58:55;;;;;;;15.63;8.75;;;4.60;99.90;;;;;;4990634;28;20572;-77
2021/04/12 05:01:45;;;;;;;10.70;7.63;;;4.50;99.90;;;;;;4990421;28;20048;-76
2021/04/12 05:05:02;;;;;;;14.27;8.95;;;4.60;99.90;;;;;;5002836;28;20107;-77
2021/04/12 05:07:50;;;;;;;12.10;8.15;;;4.60;99.90;;;;;;4898943;29;20028;-76
2021/04/12 05:10:24;;;;;;;11.90;7.53;;;4.50;99.90;;;;;;4893822;29;20033;-79
2021/04/12 05:13:11;;;;;;;11.60;7.93;;;4.50;99.90;;;;;;4962708;28;20045;-77
2021/04/12 05:16:30;;;;;;;13.40;8.50;;;4.60;99.90;;;;;;4986055;28;20136;-77
2021/04/12 05:19:22;;;;;;;16.70;10.02;;;4.60;99.90;;;;;;4893583;29;20130;-78
2021/04/12 05:21:56;;;;;;;15.27;7.80;;;4.40;99.90;;;;;;4898495;29;20032;-77
2021/04/12 05:24:53;;;;;;;16.25;8.68;;;4.50;99.90;;;;;;4971287;28;20121;-74
2021/04/12 05:27:19;;;;;;;16.45;9.07;;;;;;;;;;4991446;28;20026;-76
2021/04/12 05:30:06;;;;;;;19.08;8.00;;;4.40;99.90;;;;;;4990935;28;20033;-76
2021/04/12 05:33:09;;;;;;;12.98;8.07;;;4.50;99.90;;;;;;4991598;28;20022;-80
2021/04/12 05:35:48;;;;;;;13.50;7.25;;;4.40;99.90;;;;;;4991558;28;20539;-75
2021/04/12 05:38:21;;;;;;;12.38;7.35;;;4.40;99.90;;;;;;4994899;28;20104;-76
2021/04/12 05:41:07;;;;;;;15.65;7.93;;;4.40;99.90;;;;;;4989653;28;20034;-75
2021/04/12 05:44:01;;;;;;;12.27;7.40;;;4.40;99.90;;;;;;5007498;28;20069;-74
2021/04/12 05:47:03;;;;;;;13.05;7.18;;;4.40;99.90;;;;;;4985665;28;20040;-78
2021/04/12 05:50:13;;;;;;;14.18;7.38;;;4.40;99.90;;;;;;4987307;28;20027;-77
2021/04/12 05:53:06;;;;;;;12.55;7.75;;;4.50;99.90;;;;;;4984794;28;20040;-76
2021/04/12 05:55:56;;;;;;;12.05;8.25;;;4.40;99.90;;;;;;4986500;28;20026;-77
2021/04/12 05:58:51;;;;;;;11.10;7.50;;;4.50;99.90;;;;;;4992019;28;20034;-76
2021/04/12 06:01:49;;;;;;;13.68;8.15;;;4.50;99.90;;;;;;4990334;28;20360;-75
2021/04/12 06:04:55;;;;;;;13.35;7.93;;;4.50;99.90;;;;;;4977499;28;20030;-77
2021/04/12 06:07:59;;;;;;;14.05;7.95;;;4.50;99.90;;;;;;4942095;28;20386;-75
2021/04/12 06:10:46;;;;;;;10.65;7.50;;;4.40;99.90;;;;;;4988911;28;20509;-76
2021/04/12 06:13:46;;;;;;;11.32;6.90;;;4.40;99.90;;;;;;4986435;28;20378;-74
2021/04/12 06:16:33;;;;;;;12.23;7.83;;;4.50;99.90;;;;;;4990626;28;20022;-76
2021/04/12 06:19:40;;;;;;;13.25;7.05;;;4.50;99.90;;;;;;4989759;28;20030;-76
2021/04/12 06:22:27;;;;;;;11.93;7.45;;;4.60;99.90;;;;;;4988540;28;20270;-77
2021/04/12 06:25:24;;;;;;;11.57;7.45;;;4.60;99.90;;;;;;4990853;28;20042;-77
2021/04/12 06:28:16;;;;;;;13.52;7.13;;;4.70;99.90;;;;;;4998216;28;20070;-74
2021/04/12 06:31:01;;;;;;;11.02;6.43;;;4.70;99.90;;;;;;4987135;28;20031;-77
2021/04/12 06:33:32;;;;;;;11.13;6.63;;;4.70;99.90;;;;;;4985172;28;20038;-76
2021/04/12 06:36:18;;;;;;;12.45;7.65;;;4.60;99.90;;;;;;4987505;28;20023;-77
2021/04/12 06:39:12;;;;;;;10.48;6.28;;;4.60;99.90;;;;;;4990021;28;20493;-77
2021/04/12 06:42:00;;;;;;;14.73;6.18;;;4.70;99.90;;;;;;4983434;28;20039;-76
2021/04/12 06:44:51;;;;;;;10.65;6.55;;;4.80;99.90;;;;;;4997872;28;20022;-77
2021/04/12 06:47:41;;;;;;;11.85;6.57;;;5.00;99.90;;;;;;4983929;28;20096;-79
2021/04/12 06:50:32;;;;;;;12.63;6.07;;;5.00;99.90;;;;;;5002595;28;20041;-75
2021/04/12 06:53:34;;;;;;;10.82;5.90;;;4.90;99.90;;;;;;5003983;28;20058;-78
2021/04/12 06:56:01;;;;;;;11.82;6.55;;;5.10;99.90;;;;;;5004770;28;20038;-78
2021/04/12 06:58:49;;;;;;;12.85;6.05;;;5.20;99.90;;;;;;4986388;28;20102;-75
2021/04/12 07:01:52;;;;;;;9.50;6.00;;;5.40;99.90;;;;;;4984271;28;20074;-78
2021/04/12 07:04:39;;;;;;;10.95;5.43;;;5.40;99.90;;;;;;4987710;28;20107;-76
2021/04/12 07:07:16;;;;;;;10.85;5.95;;;5.40;99.90;;;;;;4989811;28;20391;-77
2021/04/12 07:10:09;;;;;;;8.52;5.43;;;5.50;99.90;;;;;;4988548;28;20071;-76
2021/04/12 07:13:08;;;;;;;9.25;5.95;;;5.70;99.90;;;;;;4989387;28;20038;-75
2021/04/12 07:16:06;;;;;;;9.45;4.97;;;5.80;99.80;;;;;;4990057;28;20033;-77
2021/04/12 07:18:52;;;;;;;8.88;5.18;;;5.80;99.90;;;;;;4979712;28;20038;-79
2021/04/12 07:21:21;;;;;;;7.95;4.80;;;5.90;99.40;;;;;;4982107;28;20022;-77
2021/04/12 07:24:22;;;;;;;8.27;5.00;;;6.00;98.60;;;;;;4983618;28;20061;-75
2021/04/12 07:27:13;;;;;;;10.68;4.78;;;6.10;98.90;;;;;;4989428;28;20034;-75
2021/04/12 07:29:52;;;;;;;7.55;4.47;;;6.10;98.30;;;;;;5000933;28;20560;-77
2021/04/12 07:32:55;;;;;;;8.20;4.15;;;6.20;98.20;;;;;;4990242;28;20034;-77
2021/04/12 07:35:30;;;;;;;8.88;4.55;;;6.30;97.40;;;;;;4988391;28;20037;-76
2021/04/12 07:38:24;;;;;;;7.07;3.95;;;6.30;97.40;;;;;;4988558;28;20038;-77
2021/04/12 07:41:28;;;;;;;7.75;3.78;;;6.30;96.80;;;;;;4991704;28;20478;-75
2021/04/12 07:44:12;;;;;;;7.70;4.00;;;6.40;96.60;;;;;;4986203;28;20109;-79
2021/04/12 07:46:38;;;;;;;9.55;3.70;;;;;;;;;;5004486;28;20484;-77
2021/04/12 07:49:52;;;;;;;8.02;3.95;;;6.40;95.80;;;;;;4984904;28;20034;-80
2021/04/12 07:52:36;;;;;;;7.40;3.90;;;6.60;95.20;;;;;;4935004;28;20156;-79
2021/04/12 07:55:14;;;;;;;10.00;4.07;;;6.70;95.30;;;;;;4990085;28;20117;-77
2021/04/12 07:57:48;;;;;;;10.25;3.95;;;6.80;95.10;;;;;;4991784;28;20327;-77
2021/04/12 08:00:52;;;;;;;7.38;3.78;;;6.80;95.30;;;;;;4989040;28;20041;-79
2021/04/12 08:03:42;;;;;;;7.00;3.63;;;7.00;94.50;;;;;;5001115;28;20085;-78
2021/04/12 08:06:45;;;;;;;5.10;2.73;;;7.20;93.90;;;;;;5003501;28;20133;-75
2021/04/12 08:09:49;;;;;;;5.47;2.80;;;7.50;92.30;;;;;;4997677;28;20027;-76
2021/04/12 08:12:36;;;;;;;5.38;3.60;;;7.60;91.70;;;;;;4988385;28;20026;-78
2021/04/12 08:15:11;;;;;;;5.85;3.00;;;7.40;91.90;;;;;;4987261;28;20039;-77
2021/04/12 08:18:08;;;;;;;6.38;3.47;;;7.50;90.80;;;;;;4997184;28;20034;-78
2021/04/12 08:20:36;;;;;;;5.03;3.20;;;7.50;91.70;;;;;;5005024;28;20034;-77
2021/04/12 08:23:43;;;;;;;6.57;3.28;;;7.60;91.40;;;;;;4991026;28;20101;-76
2021/04/12 08:26:46;;;;;;;5.60;2.85;;;7.60;90.00;;;;;;4988658;28;20393;-81
2021/04/12 08:29:21;;;;;;;3.35;2.17;;;8.10;90.70;;;;;;4989872;28;20037;-80
2021/04/12 08:31:49;;;;;;;7.75;2.50;;;7.50;86.60;;;;;;4985888;28;20038;-77
2021/04/12 08:34:15;;;;;;;6.00;2.90;;;;;;;;;;4992118;28;20027;-78
2021/04/12 08:37:06;;;;;;;3.42;1.80;;;7.30;84.50;;;;;;4985549;28;20030;-77
2021/04/12 08:39:31;;;;;;;3.35;1.70;;;;;;;;;;4990967;28;20041;-78
2021/04/12 08:42:18;;;;;;;3.95;2.20;;;7.60;83.40;;;;;;4988122;28;20125;-80
2021/04/12 08:45:11;;;;;;;5.97;2.28;;;7.90;81.50;;;;;;4988222;28;20037;-78
2021/04/12 08:48:16;;;;;;;6.13;2.50;;;8.10;80.30;;;;;;4989419;28;20037;-77
2021/04/12 08:50:42;;;;;;;4.80;2.58;;;;;;;;;;4947597;28;20041;-76
2021/04/12 08:53:29;;;;;;;4.55;2.20;;;7.90;79.60;;;;;;5004094;28;20117;-79
2021/04/12 08:56:22;;;;;;;5.47;1.83;;;8.10;78.10;;;;;;5000113;28;20158;-77
2021/04/12 08:59:22;;;;;;;2.67;1.77;;;8.00;75.30;;;;;;4996610;28;20039;-77
2021/04/12 09:02:28;;;;;;;2.88;1.80;;;8.30;76.90;;;;;;4995373;28;20422;-81
2021/04/12 09:05:30;;;;;;;3.78;2.40;;;8.20;76.40;;;;;;5003116;28;20042;-77
2021/04/12 09:08:32;;;;;;;4.90;2.20;;;8.30;75.70;;;;;;4987153;28;20030;-79
2021/04/12 09:11:19;;;;;;;3.17;1.98;;;8.20;73.60;;;;;;4990059;28;20057;-76
2021/04/12 09:14:22;;;;;;;4.47;2.22;;;8.10;73.10;;;;;;4984974;28;20092;-77
2021/04/12 09:17:05;;;;;;;3.50;1.88;;;8.40;73.40;;;;;;4984114;28;20050;-79
2021/04/12 09:19:52;;;;;;;4.30;1.75;;;8.40;70.10;;;;;;4987320;28;20405;-78
2021/04/12 09:22:56;;;;;;;5.85;2.00;;;8.90;69.20;;;;;;4990029;28;20493;-76
2021/04/12 09:25:59;;;;;;;4.60;2.10;;;8.90;69.40;;;;;;4982227;28;20053;-77
2021/04/12 09:28:30;;;;;;;4.90;2.25;;;8.90;69.40;;;;;;4999447;28;20290;-77
2021/04/12 09:31:37;;;;;;;2.50;1.90;;;8.80;70.00;;;;;;5000914;28;20571;-77
2021/04/12 09:34:24;;;;;;;4.32;2.13;;;8.60;70.50;;;;;;4962685;28;20046;-77
2021/04/12 09:37:21;;;;;;;4.07;1.95;;;8.30;74.50;;;;;;5001475;28;20097;-77
2021/04/12 09:40:20;;;;;;;3.28;1.73;;;8.50;69.90;;;;;;4982465;28;20038;-77
2021/04/12 09:43:07;;;;;;;2.40;1.60;;;9.00;68.10;;;;;;5000355;28;20026;-77
2021/04/12 09:46:27;;;;;;;3.60;1.80;;;9.00;68.30;;;;;;4987170;28;20054;-76
2021/04/12 09:49:08;;;;;;;3.30;1.80;;;9.10;66.30;;;;;;4910545;29;20020;-77
2021/04/12 09:51:50;;;;;;;4.90;2.08;;;9.30;65.40;;;;;;4979565;28;20128;-76
2021/04/12 09:54:18;;;;;;;4.80;1.90;;;9.10;66.10;;;;;;5000222;28;20511;-78
2021/04/12 09:57:24;;;;;;;4.75;1.77;;;9.20;68.00;;;;;;4978141;28;20053;-77
2021/04/12 10:00:14;;;;;;;3.45;1.95;;;9.00;66.60;;;;;;4983647;28;20027;-77
2021/04/12 10:02:55;;;;;;;6.25;1.92;;;9.00;67.90;;;;;;4979844;28;20030;-77
2021/04/12 10:06:02;;;;;;;3.75;1.77;;;9.10;65.00;;;;;;4987827;28;20026;-77
2021/04/12 10:08:35;;;;;;;5.25;1.95;;;9.10;65.70;;;;;;4997137;28;20034;-78
2021/04/12 10:11:11;;;;;;;3.45;1.98;;;9.00;65.40;;;;;;4985372;28;20030;-79
2021/04/12 10:13:48;;;;;;;4.00;1.60;;;9.00;65.80;;;;;;4986615;28;20050;-78
2021/04/12 10:16:23;;;;;;;5.88;2.03;;;8.90;67.20;;;;;;4983931;28;20497;-78
2021/04/12 10:18:57;;;;;;;3.20;1.92;;;8.80;67.40;;;;;;4996001;28;20030;-78
2021/04/12 10:21:47;;;;;;;3.85;1.90;;;8.80;67.10;;;;;;4984361;28;20865;-76
2021/04/12 10:24:27;;;;;;;3.90;1.85;;;8.60;68.50;;;;;;4980826;28;20058;-77
2021/04/12 10:26:59;;;;;;;3.95;1.73;;;8.80;68.90;;;;;;4988979;28;20038;-78
2021/04/12 10:29:43;;;;;;;5.80;1.60;;;8.90;67.70;;;;;;5001294;28;20046;-76
2021/04/12 10:32:20;;;;;;;3.28;1.70;;;8.90;67.00;;;;;;4981746;28;20065;-76
2021/04/12 10:34:49;;;;;;;4.40;1.83;;;9.00;65.30;;;;;;4981963;28;20027;-78
2021/04/12 10:37:39;;;;;;;4.20;2.40;;;8.90;67.50;;;;;;4986513;28;20034;-78
2021/04/12 10:40:38;;;;;;;4.15;1.70;;;9.10;67.50;;;;;;4987395;28;20034;-78
2021/04/12 10:43:27;;;;;;;5.15;1.88;;;9.20;67.40;;;;;;4983751;28;20398;-81
2021/04/12 10:46:04;;;;;;;4.25;1.90;;;9.70;64.90;;;;;;4993716;28;20037;-77
2021/04/12 10:48:48;;;;;;;3.70;2.00;;;9.80;64.10;;;;;;4997717;28;20030;-79
2021/04/12 10:51:29;;;;;;;3.75;2.00;;;9.60;64.50;;;;;;4987535;28;20038;-78
2021/04/12 10:54:15;;;;;;;4.40;1.90;;;9.20;64.50;;;;;;4996914;28;20046;-76
2021/04/12 10:57:16;;;;;;;3.40;1.92;;;9.20;65.00;;;;;;5007627;28;20102;-77
2021/04/12 10:59:52;;;;;;;2.33;1.55;;;9.00;63.80;;;;;;4959987;28;20050;-79
2021/04/12 11:02:22;;;;;;;3.67;1.88;;;9.50;64.40;;;;;;4983359;28;20026;-76
2021/04/12 11:04:49;;;;;;;;;;;9.50;64.90;;;;;;4983548;28;20493;-77
2021/04/12 11:07:52;;;;;;;5.90;1.70;;;10.00;60.30;;;;;;4985714;28;20301;-79
2021/04/12 11:10:32;;;;;;;2.42;1.70;;;10.10;58.30;;;;;;4998181;28;20057;-75
2021/04/12 11:13:01;;;;;;;3.97;1.83;;;10.00;58.00;;;;;;4982988;28;20046;-78
2021/04/12 11:16:14;;;;;;;2.65;1.42;;;10.20;57.60;;;;;;4983777;28;20029;-77
2021/04/12 11:19:08;;;;;;;3.60;1.67;;;10.00;57.30;;;;;;4980778;28;20035;-77
2021/04/12 11:21:57;;;;;;;6.65;2.08;;;9.70;59.00;;;;;;4989113;28;20022;-77
2021/04/12 11:24:23;;;;;;;4.78;1.88;;;9.60;57.90;;;;;;5003551;28;20485;-77
2021/04/12 11:27:26;;;;;;;4.50;1.60;;;9.80;57.80;;;;;;4995254;28;20069;-78
2021/04/12 11:30:22;;;;;;;2.85;1.45;;;10.00;58.40;;;;;;5000605;28;20030;-77
2021/04/12 11:33:06;;;;;;;4.43;2.00;;;9.90;60.90;;;;;;4983468;28;20589;-77
2021/04/12 11:35:56;;;;;;;5.20;2.00;;;9.90;59.80;;;;;;4987544;28;20551;-78
2021/04/12 11:38:26;;;;;;;3.95;1.50;;;9.80;60.30;;;;;;4990305;28;20026;-81
2021/04/12 11:40:52;;;;;;;2.53;1.60;;;;;;;;;;4993221;28;20062;-80
2021/04/12 11:43:24;;;;;;;7.45;1.70;;;9.90;60.70;;;;;;4995914;28;20270;-79
2021/04/12 11:46:16;;;;;;;2.80;1.83;;;9.80;60.10;;;;;;4991330;28;20034;-79
2021/04/12 11:48:48;;;;;;;5.10;2.00;;;9.80;60.00;;;;;;4991902;28;20113;-79
2021/04/12 11:51:33;;;;;;;2.95;1.67;;;9.60;60.20;;;;;;4987393;28;20030;-80
2021/04/12 11:54:02;;;;;;;4.90;1.90;;;9.50;60.80;;;;;;4988637;28;20030;-80
2021/04/12 11:56:58;;;;;;;4.60;1.75;;;9.60;59.50;;;;;;4989636;28;20038;-76
2021/04/12 11:59:46;;;;;;;4.25;1.60;;;9.80;58.80;;;;;;4988473;28;20057;-81
2021/04/12 12:02:12;;;;;;;5.28;1.55;;;;;;;;;;4989841;28;20030;-74
2021/04/12 12:04:38;;;;;;;3.78;1.70;;;;;;;;;;4991283;28;20049;-78
2021/04/12 12:07:14;;;;;;;4.38;1.70;;;10.50;57.80;;;;;;4991190;28;20071;-77
2021/04/12 12:09:40;;;;;;;2.72;1.77;;;;;;;;;;4991974;28;20799;-76
2021/04/12 12:12:29;;;;;;;5.80;1.80;;;10.80;56.30;;;;;;4994896;28;20034;-75
2021/04/12 12:14:55;;;;;;;3.83;1.83;;;;;;;;;;4979881;28;20034;-76
2021/04/12 12:17:25;;;;;;;5.85;1.73;;;11.10;55.30;;;;;;4991270;28;20118;-78
2021/04/12 12:20:01;;;;;;;3.90;1.83;;;10.80;55.50;;;;;;4993829;28;20042;-76
2021/04/12 12:22:46;;;;;;;3.25;1.90;;;;;;;;;;5006661;28;20367;-76
2021/04/12 12:25:18;;;;;;;3.28;1.80;;;;;;;;;;4989937;28;20058;-77
2021/04/12 12:28:14;;;;;;;2.72;1.73;;;10.40;58.30;;;;;;4985710;28;20058;-76
2021/04/12 12:30:53;;;;;;;3.50;1.80;;;10.80;57.80;;;;;;4990369;28;20026;-76
2021/04/12 12:33:51;;;;;;;4.70;1.92;;;11.10;55.10;;;;;;4991366;28;20038;-76
2021/04/12 12:36:31;;;;;;;4.60;1.58;;;11.50;53.80;;;;;;4989148;28;20037;-76
2021/04/12 12:39:17;;;;;;;5.95;1.50;;;11.90;52.30;;;;;;4986180;28;20080;-77
2021/04/12 12:41:46;;;;;;;3.78;1.70;;;11.80;49.80;;;;;;4988864;28;20042;-77
2021/04/12 12:44:17;;;;;;;3.58;1.60;;;11.50;51.20;;;;;;4988956;28;20057;-78
2021/04/12 12:46:44;;;;;;;2.85;1.45;;;11.50;51.70;;;;;;4994347;28;20161;-77
2021/04/12 12:49:22;;;;;;;3.45;1.58;;;11.20;51.00;;;;;;5007681;28;20054;-77
2021/04/12 12:51:52;;;;;;;2.65;1.52;;;11.30;50.10;;;;;;4989116;28;20061;-77
2021/04/12 12:54:30;;;;;;;3.72;1.33;;;;;;;;;;4988982;28;20041;-75
2021/04/12 12:57:04;;;;;;;3.17;1.25;;;11.70;48.90;;;;;;5001272;28;20038;-75
2021/04/12 12:59:46;;;;;;;4.25;1.55;;;11.80;49.00;;;;;;5005764;28;20113;-76
2021/04/12 13:02:32;;;;;;;3.35;2.15;;;12.00;46.60;;;;;;4986156;28;20057;-77
2021/04/12 13:05:35;;;;;;;2.72;1.42;;;12.30;45.30;;;;;;4988170;28;20521;-77
2021/04/12 13:08:28;;;;;;;2.10;1.27;;;12.30;44.40;;;;;;4916755;29;20058;-74
2021/04/12 13:10:55;;;;;;;3.30;1.27;;;12.30;45.10;;;;;;4978044;28;20038;-78
2021/04/12 13:13:30;;;;;;;2.80;1.45;;;12.20;45.30;;;;;;4980313;28;20143;-80
2021/04/12 13:16:10;;;;;;;2.08;1.40;;;12.20;45.40;;;;;;4985588;28;20224;-77
2021/04/12 13:18:37;;;;;;;2.78;1.40;;;;;;;;;;4979145;28;20085;-79
2021/04/12 13:21:09;;;;;;;2.13;1.25;;;12.00;46.20;;;;;;4992861;28;20030;-77
2021/04/12 13:23:43;;;;;;;3.30;1.30;;;12.00;46.70;;;;;;4987579;28;20078;-78
2021/04/12 13:26:29;;;;;;;2.97;1.10;;;12.10;45.80;;;;;;4991553;28;20030;-76
2021/04/12 13:28:58;;;;;;;4.22;2.15;;;12.10;46.90;;;;;;4986482;28;20039;-77
2021/04/12 13:31:37;;;;;;;2.40;1.38;;;12.10;46.90;;;;;;4994776;28;20084;-78
2021/04/12 13:34:17;;;;;;;3.17;1.42;;;12.00;45.80;;;;;;4996076;28;20033;-76
2021/04/12 13:36:51;;;;;;;1.73;1.27;;;11.80;44.20;;;;;;5011832;28;20031;-77
2021/04/12 13:39:44;;;;;;;3.60;1.48;;;11.90;44.90;;;;;;4995928;28;20026;-77
2021/04/12 13:42:33;;;;;;;8.13;1.30;;;12.00;46.00;;;;;;5000327;28;20034;-76
2021/04/12 13:45:09;;;;;;;2.83;1.50;;;12.30;44.20;;;;;;4994367;28;20397;-76
2021/04/12 13:47:50;;;;;;;3.85;1.80;;;12.40;44.60;;;;;;5008524;28;20030;-75
2021/04/12 13:50:18;;;;;;;3.08;1.30;;;12.60;43.90;;;;;;4982212;28;20045;-76
2021/04/12 13:52:49;;;;;;;2.75;1.10;;;12.30;44.20;;;;;;4985348;28;20026;-76
2021/04/12 13:55:23;;;;;;;3.35;1.40;;;12.30;44.30;;;;;;4989504;28;20030;-76
2021/04/12 13:57:59;;;;;;;4.18;1.50;;;12.40;43.90;;;;;;4984457;28;20103;-78
2021/04/12 14:00:36;;;;;;;3.53;1.45;;;12.40;45.10;;;;;;4993300;28;20026;-77
2021/04/12 14:03:25;;;;;;;2.90;1.20;;;12.40;42.40;;;;;;4990777;28;20053;-76
2021/04/12 14:06:02;;;;;;;1.83;1.10;;;12.60;43.30;;;;;;4987819;28;20481;-77
2021/04/12 14:08:42;;;;;;;2.70;1.42;;;12.30;43.90;;;;;;4975474;28;20045;-77
2021/04/12 14:11:41;;;;;;;2.53;1.42;;;12.20;44.80;;;;;;4988773;28;20034;-77
2021/04/12 14:14:23;;;;;;;2.25;1.45;;;12.20;44.10;;;;;;4983486;28;20034;-77
2021/04/12 14:17:02;;;;;;;4.28;1.73;;;12.50;45.10;;;;;;5001940;28;20030;-77
2021/04/12 14:19:35;;;;;;;3.58;1.63;;;12.00;45.10;;;;;;5003698;28;20026;-77
2021/04/12 14:22:18;;;;;;;4.68;1.73;;;12.00;45.40;;;;;;4989340;28;20042;-75
2021/04/12 14:24:52;;;;;;;2.80;1.65;;;12.20;47.10;;;;;;4991286;28;20038;-76
2021/04/12 14:27:28;;;;;;;3.38;1.42;;;12.00;45.80;;;;;;4990638;28;20117;-78
2021/04/12 14:30:03;;;;;;;5.40;1.60;;;11.50;47.30;;;;;;4992661;28;20433;-79
2021/04/12 14:32:33;;;;;;;2.85;1.60;;;11.60;47.90;;;;;;4993423;28;20054;-76